Time;durP1;ratioP1;P1;durP2;ratioP2;P2;SDS_P1;SDS_P2;PMS_P1;PMS_P2;Temp;Humidity;BMP_temperature;BMP_pressure;BME280_temperature;BME280_humidity;BME280_pressure;Samples;Min_cycle;Max_cycle;Signal;HPM_P1;HPM_P2
2023/12/31 11:45:44;;;;;;;8.57;6.53;;;10.30;93.30;;;;;;21042551;28;20578;-70
2023/12/31 11:55:53;;;;;;;9.60;6.60;;;10.10;93.30;;;;;;20995563;28;20245;-70
2023/12/31 12:05:55;;;;;;;8.00;5.97;;;;;;;;;;20982970;28;20754;-72
2023/12/31 12:15:58;;;;;;;8.33;5.90;;;;;;;;;;20926861;28;20326;-70
2023/12/31 12:26:00;;;;;;;10.10;6.20;;;;;;;;;;20956995;28;20336;-70
2023/12/31 12:46:06;;;;;;;6.33;3.80;;;9.30;95.20;;;;;;21038980;27;20585;-72
2023/12/31 12:56:08;;;;;;;5.10;3.67;;;;;;;;;;20983834;28;20205;-73
2023/12/31 13:06:10;;;;;;;4.47;3.50;;;9.40;96.50;;;;;;20982339;28;20205;-75
2023/12/31 13:16:12;;;;;;;4.07;3.20;;;;;;;;;;20981976;28;20691;-73
2023/12/31 13:26:24;;;;;;;5.10;3.40;;;;;;;;;;21027273;28;20656;-72
2023/12/31 13:36:26;;;;;;;4.33;2.47;;;;;;;;;;21148237;28;20241;-72
2023/12/31 13:46:28;;;;;;;4.57;2.30;;;;;;;;;;21147399;28;20211;-72
2023/12/31 13:56:30;;;;;;;2.10;1.87;;;;;;;;;;21095190;28;20664;-72
2023/12/31 14:06:32;;;;;;;2.30;1.90;;;;;;;;;;21089985;28;20212;-69
2023/12/31 14:16:34;;;;;;;5.20;2.50;;;;;;;;;;21088817;28;20225;-72
2023/12/31 14:26:37;;;;;;;2.30;1.83;;;;;;;;;;21063240;28;20206;-71
2023/12/31 14:36:40;;;;;;;2.43;1.70;;;;;;;;;;21003534;28;20238;-72
2023/12/31 14:46:43;;;;;;;3.80;2.60;;;;;;;;;;21001239;28;20209;-74
2023/12/31 14:56:45;;;;;;;3.37;1.90;;;;;;;;;;21000587;28;20765;-72
2023/12/31 15:06:47;;;;;;;2.83;1.77;;;;;;;;;;20999815;28;20211;-66
2023/12/31 15:16:51;;;;;;;2.13;1.50;;;;;;;;;;20998156;28;20234;-66
2023/12/31 15:26:54;;;;;;;2.90;1.40;;;;;;;;;;20999434;28;20229;-68
2023/12/31 15:36:57;;;;;;;2.67;1.70;;;;;;;;;;20998500;28;20699;-66
2023/12/31 15:46:59;;;;;;;3.07;1.30;;;;;;;;;;20997744;28;20202;-66
2023/12/31 15:57:01;;;;;;;1.67;1.23;;;;;;;;;;20996766;28;20254;-67
2023/12/31 16:07:03;;;;;;;1.57;1.37;;;;;;;;;;20996841;28;20208;-66
2023/12/31 16:17:05;;;;;;;2.00;1.23;;;;;;;;;;20995702;28;20276;-66
2023/12/31 16:27:08;;;;;;;2.20;1.20;;;;;;;;;;20994946;28;20678;-69
2023/12/31 16:37:10;;;;;;;1.30;1.17;;;;;;;;;;20995166;28;20236;-68
2023/12/31 16:47:12;;;;;;;4.23;1.53;;;;;;;;;;20994786;28;20210;-68
2023/12/31 16:57:14;;;;;;;2.40;1.47;;;;;;;;;;20993640;28;20223;-67
2023/12/31 17:19:08;;;;;;;3.47;1.80;;;;;;;;;;20984278;28;20575;-70
2023/12/31 17:29:10;;;;;;;1.83;1.30;;;;;;;;;;20983407;28;20213;-71
2023/12/31 17:39:13;;;;;;;2.30;1.40;;;;;;;;;;20983019;28;20219;-67
2023/12/31 17:49:15;;;;;;;2.73;1.40;;;;;;;;;;20981690;28;20214;-70
2023/12/31 17:59:17;;;;;;;4.60;2.10;;;;;;;;;;20981277;28;20287;-69
2023/12/31 18:09:20;;;;;;;3.63;2.00;;;;;;;;;;20980313;28;20209;-70
2023/12/31 18:19:22;;;;;;;3.10;1.73;;;;;;;;;;20979536;28;20220;-69
2023/12/31 18:29:24;;;;;;;2.90;1.90;;;;;;;;;;20931548;28;20658;-67
2023/12/31 18:39:27;;;;;;;3.43;1.97;;;;;;;;;;20921834;28;20302;-67
2023/12/31 18:49:30;;;;;;;10.70;5.03;;;;;;;;;;20922299;28;20693;-70
2023/12/31 18:59:32;;;;;;;7.03;3.40;;;;;;;;;;20921101;28;20216;-68
2023/12/31 19:09:34;;;;;;;4.17;2.10;;;;;;;;;;20920341;28;20470;-70
2023/12/31 19:19:36;;;;;;;6.43;3.30;;;;;;;;;;20919116;28;20211;-66
2023/12/31 19:29:38;;;;;;;5.27;2.83;;;;;;;;;;20918517;28;20340;-67
2023/12/31 19:39:40;;;;;;;3.60;2.10;;;;;;;;;;20917219;28;20207;-68
2023/12/31 19:49:42;;;;;;;6.80;2.33;;;;;;;;;;20917105;28;20231;-70
2023/12/31 19:59:59;;;;;;;6.23;2.80;;;;;;;;;;20916247;28;20219;-71
2023/12/31 20:10:01;;;;;;;2.70;2.07;;;;;;;;;;20914965;28;20252;-69
2023/12/31 20:20:03;;;;;;;4.73;2.37;;;;;;;;;;20914571;28;20232;-67
2023/12/31 20:30:06;;;;;;;3.77;2.10;;;;;;;;;;20912480;28;20319;-70
2023/12/31 20:40:09;;;;;;;4.60;2.77;;;;;;;;;;20911479;28;20550;-67
2023/12/31 20:50:11;;;;;;;4.33;2.57;;;;;;;;;;20911115;28;20241;-69
2023/12/31 21:00:14;;;;;;;7.73;3.23;;;;;;;;;;20910434;28;20766;-70
2023/12/31 21:10:16;;;;;;;4.30;2.40;;;;;;;;;;20908556;28;20272;-71
2023/12/31 21:20:19;;;;;;;4.90;2.70;;;10.70;94.60;;;;;;20910034;28;20298;-68
2023/12/31 21:30:22;;;;;;;8.60;4.60;;;;;;;;;;20909565;28;20630;-68
2023/12/31 21:40:24;;;;;;;4.37;2.30;;;;;;;;;;20909699;28;20667;-66
2023/12/31 21:50:26;;;;;;;3.40;2.27;;;;;;;;;;20908315;28;20237;-67
2023/12/31 22:00:28;;;;;;;5.17;3.10;;;;;;;;;;20914728;28;20217;-67
2023/12/31 22:10:30;;;;;;;5.30;2.90;;;;;;;;;;20923474;28;20326;-66
2023/12/31 22:20:33;;;;;;;8.67;3.10;;;;;;;;;;20922353;28;20242;-65
2023/12/31 22:30:35;;;;;;;5.97;2.20;;;;;;;;;;20921474;28;20297;-66
2023/12/31 22:40:39;;;;;;;8.30;3.67;;;8.90;94.00;;;;;;20915832;28;20439;-68
2023/12/31 22:50:40;;;;;;;6.90;3.27;;;8.70;93.90;;;;;;20854982;28;20333;-67
2023/12/31 23:00:43;;;;;;;8.33;4.60;;;;;;;;;;20835369;28;20303;-66
2023/12/31 23:10:45;;;;;;;164.90;90.73;;;;;;;;;;20835505;28;20307;-66
2023/12/31 23:20:47;;;;;;;292.13;162.40;;;;;;;;;;20836838;28;20671;-66
2023/12/31 23:30:49;;;;;;;194.47;103.97;;;;;;;;;;20842982;28;20660;-65
2023/12/31 23:40:51;;;;;;;211.47;115.40;;;;;;;;;;20833589;28;20621;-66
2023/12/31 23:50:53;;;;;;;192.27;104.90;;;;;;;;;;20832956;28;20294;-66
